sensor_id;sensor_type;location;lat;lon;timestamp;temperature;humidity
40638;DHT22;26336;44.696;10.622;2022-09-27T00:01:50;16.30;99.90
40638;DHT22;26336;44.696;10.622;2022-09-27T00:04:54;16.20;99.90
40638;DHT22;26336;44.696;10.622;2022-09-27T00:07:59;16.20;99.90
40638;DHT22;26336;44.696;10.622;2022-09-27T00:11:10;16.10;99.90
40638;DHT22;26336;44.696;10.622;2022-09-27T00:14:16;16.10;99.90
40638;DHT22;26336;44.696;10.622;2022-09-27T00:17:21;16.10;99.90
40638;DHT22;26336;44.696;10.622;2022-09-27T00:20:24;16.00;99.90
40638;DHT22;26336;44.696;10.622;2022-09-27T00:23:28;16.00;99.90
40638;DHT22;26336;44.696;10.622;2022-09-27T00:26:32;15.90;99.90
40638;DHT22;26336;44.696;10.622;2022-09-27T00:29:37;15.90;99.90
40638;DHT22;26336;44.696;10.622;2022-09-27T00:32:40;15.90;99.90
40638;DHT22;26336;44.696;10.622;2022-09-27T00:35:45;15.90;99.90
40638;DHT22;26336;44.696;10.622;2022-09-27T00:38:49;15.80;99.90
40638;DHT22;26336;44.696;10.622;2022-09-27T00:41:52;15.80;99.90
40638;DHT22;26336;44.696;10.622;2022-09-27T00:48:35;15.70;99.90
40638;DHT22;26336;44.696;10.622;2022-09-27T00:51:41;15.70;99.90
40638;DHT22;26336;44.696;10.622;2022-09-27T00:54:47;15.60;99.90
40638;DHT22;26336;44.696;10.622;2022-09-27T00:57:53;15.60;99.90
40638;DHT22;26336;44.696;10.622;2022-09-27T01:01:03;15.50;99.90
40638;DHT22;26336;44.696;10.622;2022-09-27T01:04:13;15.30;99.90
40638;DHT22;26336;44.696;10.622;2022-09-27T01:07:17;15.20;99.90
40638;DHT22;26336;44.696;10.622;2022-09-27T01:10:22;15.20;99.90
40638;DHT22;26336;44.696;10.622;2022-09-27T01:30:22;15.10;99.90
40638;DHT22;26336;44.696;10.622;2022-09-27T01:39:58;15.20;99.90
40638;DHT22;26336;44.696;10.622;2022-09-27T01:43:23;15.20;99.90
40638;DHT22;26336;44.696;10.622;2022-09-27T01:46:35;15.30;99.90
40638;DHT22;26336;44.696;10.622;2022-09-27T01:50:09;15.40;99.90
40638;DHT22;26336;44.696;10.622;2022-09-27T01:53:20;15.40;99.90
40638;DHT22;26336;44.696;10.622;2022-09-27T01:56:49;15.40;99.90
40638;DHT22;26336;44.696;10.622;2022-09-27T02:00:05;15.30;99.90
40638;DHT22;26336;44.696;10.622;2022-09-27T02:03:41;15.30;99.90
40638;DHT22;26336;44.696;10.622;2022-09-27T02:07:16;15.40;99.90
40638;DHT22;26336;44.696;10.622;2022-09-27T02:10:30;15.50;99.90
40638;DHT22;26336;44.696;10.622;2022-09-27T02:14:00;15.60;99.90
40638;DHT22;26336;44.696;10.622;2022-09-27T02:20:53;15.60;99.90
40638;DHT22;26336;44.696;10.622;2022-09-27T02:24:00;15.60;99.90
40638;DHT22;26336;44.696;10.622;2022-09-27T02:27:12;15.50;99.90
40638;DHT22;26336;44.696;10.622;2022-09-27T02:30:18;15.50;99.90
40638;DHT22;26336;44.696;10.622;2022-09-27T02:33:51;15.50;99.90
40638;DHT22;26336;44.696;10.622;2022-09-27T02:36:56;15.10;99.90
40638;DHT22;26336;44.696;10.622;2022-09-27T02:40:00;15.10;99.90
40638;DHT22;26336;44.696;10.622;2022-09-27T02:43:06;15.20;99.90
40638;DHT22;26336;44.696;10.622;2022-09-27T02:54:00;15.30;99.90
40638;DHT22;26336;44.696;10.622;2022-09-27T03:04:58;15.30;99.90
40638;DHT22;26336;44.696;10.622;2022-09-27T03:08:03;15.30;99.90
40638;DHT22;26336;44.696;10.622;2022-09-27T03:11:08;15.20;99.90
40638;DHT22;26336;44.696;10.622;2022-09-27T03:14:12;15.10;99.90
40638;DHT22;26336;44.696;10.622;2022-09-27T03:17:24;15.10;99.90
40638;DHT22;26336;44.696;10.622;2022-09-27T03:20:47;15.10;99.90
40638;DHT22;26336;44.696;10.622;2022-09-27T03:23:54;15.00;99.90
40638;DHT22;26336;44.696;10.622;2022-09-27T03:26:58;14.90;99.90
40638;DHT22;26336;44.696;10.622;2022-09-27T03:30:02;14.90;99.90
40638;DHT22;26336;44.696;10.622;2022-09-27T03:33:06;14.90;99.90
40638;DHT22;26336;44.696;10.622;2022-09-27T03:36:22;14.90;99.90
40638;DHT22;26336;44.696;10.622;2022-09-27T03:39:27;14.80;99.90
40638;DHT22;26336;44.696;10.622;2022-09-27T03:42:31;14.80;99.90
40638;DHT22;26336;44.696;10.622;2022-09-27T03:45:35;14.70;99.90
40638;DHT22;26336;44.696;10.622;2022-09-27T03:48:43;14.60;99.90
40638;DHT22;26336;44.696;10.622;2022-09-27T03:51:47;14.60;99.90
40638;DHT22;26336;44.696;10.622;2022-09-27T03:54:51;14.70;99.90
40638;DHT22;26336;44.696;10.622;2022-09-27T03:57:55;14.70;99.90
40638;DHT22;26336;44.696;10.622;2022-09-27T04:00:59;14.70;99.90
40638;DHT22;26336;44.696;10.622;2022-09-27T04:04:04;14.70;99.90
40638;DHT22;26336;44.696;10.622;2022-09-27T04:07:09;14.70;99.90
40638;DHT22;26336;44.696;10.622;2022-09-27T04:10:14;14.50;99.90
40638;DHT22;26336;44.696;10.622;2022-09-27T04:13:19;14.30;99.90
40638;DHT22;26336;44.696;10.622;2022-09-27T04:16:30;14.20;99.90
40638;DHT22;26336;44.696;10.622;2022-09-27T04:20:04;14.30;99.90
40638;DHT22;26336;44.696;10.622;2022-09-27T04:23:10;14.40;99.90
40638;DHT22;26336;44.696;10.622;2022-09-27T04:26:17;14.40;99.90
40638;DHT22;26336;44.696;10.622;2022-09-27T04:29:42;14.50;99.90
40638;DHT22;26336;44.696;10.622;2022-09-27T04:33:06;14.50;99.90
40638;DHT22;26336;44.696;10.622;2022-09-27T04:36:19;14.50;99.90
40638;DHT22;26336;44.696;10.622;2022-09-27T04:39:37;14.40;99.90
40638;DHT22;26336;44.696;10.622;2022-09-27T04:42:42;14.40;99.90
40638;DHT22;26336;44.696;10.622;2022-09-27T04:45:46;14.40;99.90
40638;DHT22;26336;44.696;10.622;2022-09-27T04:48:50;14.40;99.90
40638;DHT22;26336;44.696;10.622;2022-09-27T04:51:54;14.40;99.90
40638;DHT22;26336;44.696;10.622;2022-09-27T04:54:59;14.30;99.90
40638;DHT22;26336;44.696;10.622;2022-09-27T04:58:04;14.30;99.90
40638;DHT22;26336;44.696;10.622;2022-09-27T05:01:08;14.20;99.90
40638;DHT22;26336;44.696;10.622;2022-09-27T05:04:35;14.10;99.90
40638;DHT22;26336;44.696;10.622;2022-09-27T05:07:42;14.10;99.90
40638;DHT22;26336;44.696;10.622;2022-09-27T05:10:52;14.20;99.90
40638;DHT22;26336;44.696;10.622;2022-09-27T05:13:57;14.20;99.90
40638;DHT22;26336;44.696;10.622;2022-09-27T05:17:02;14.20;99.90
40638;DHT22;26336;44.696;10.622;2022-09-27T05:20:31;14.20;99.90
40638;DHT22;26336;44.696;10.622;2022-09-27T05:23:46;14.20;99.90
40638;DHT22;26336;44.696;10.622;2022-09-27T05:26:50;14.10;99.90
40638;DHT22;26336;44.696;10.622;2022-09-27T05:29:54;14.10;99.90
40638;DHT22;26336;44.696;10.622;2022-09-27T05:33:04;14.10;99.90
40638;DHT22;26336;44.696;10.622;2022-09-27T05:36:37;14.10;99.90
40638;DHT22;26336;44.696;10.622;2022-09-27T05:39:41;14.10;99.90
40638;DHT22;26336;44.696;10.622;2022-09-27T05:42:45;14.10;99.90
40638;DHT22;26336;44.696;10.622;2022-09-27T05:45:51;14.20;99.90
40638;DHT22;26336;44.696;10.622;2022-09-27T05:48:57;14.30;99.90
40638;DHT22;26336;44.696;10.622;2022-09-27T05:52:00;14.30;99.90
40638;DHT22;26336;44.696;10.622;2022-09-27T05:55:06;14.30;99.90
40638;DHT22;26336;44.696;10.622;2022-09-27T05:58:11;14.30;99.90
40638;DHT22;26336;44.696;10.622;2022-09-27T06:01:26;14.40;99.90
40638;DHT22;26336;44.696;10.622;2022-09-27T06:04:53;14.40;99.90
40638;DHT22;26336;44.696;10.622;2022-09-27T06:08:23;14.40;99.90
40638;DHT22;26336;44.696;10.622;2022-09-27T06:11:28;14.50;99.90
40638;DHT22;26336;44.696;10.622;2022-09-27T06:14:32;14.50;99.90
40638;DHT22;26336;44.696;10.622;2022-09-27T06:17:45;14.50;99.90
40638;DHT22;26336;44.696;10.622;2022-09-27T06:20:58;14.60;99.90
40638;DHT22;26336;44.696;10.622;2022-09-27T06:24:04;14.60;99.90
40638;DHT22;26336;44.696;10.622;2022-09-27T06:27:11;14.60;99.90
40638;DHT22;26336;44.696;10.622;2022-09-27T06:30:24;14.60;99.90
40638;DHT22;26336;44.696;10.622;2022-09-27T06:33:31;14.60;99.90
40638;DHT22;26336;44.696;10.622;2022-09-27T06:36:38;14.70;99.90
40638;DHT22;26336;44.696;10.622;2022-09-27T06:39:43;14.70;99.90
40638;DHT22;26336;44.696;10.622;2022-09-27T06:43:16;14.70;99.90
40638;DHT22;26336;44.696;10.622;2022-09-27T06:46:43;14.70;99.90
40638;DHT22;26336;44.696;10.622;2022-09-27T06:50:06;14.80;99.90
40638;DHT22;26336;44.696;10.622;2022-09-27T06:53:13;14.80;99.90
40638;DHT22;26336;44.696;10.622;2022-09-27T06:56:18;14.80;99.90
40638;DHT22;26336;44.696;10.622;2022-09-27T06:59:26;14.80;99.90
40638;DHT22;26336;44.696;10.622;2022-09-27T07:03:09;14.90;99.90
40638;DHT22;26336;44.696;10.622;2022-09-27T07:06:34;15.00;99.90
40638;DHT22;26336;44.696;10.622;2022-09-27T07:09:51;15.10;99.90
40638;DHT22;26336;44.696;10.622;2022-09-27T07:12:56;15.10;99.90
40638;DHT22;26336;44.696;10.622;2022-09-27T07:16:06;15.20;99.90
40638;DHT22;26336;44.696;10.622;2022-09-27T07:19:10;15.20;99.90
40638;DHT22;26336;44.696;10.622;2022-09-27T07:22:17;15.30;99.90
40638;DHT22;26336;44.696;10.622;2022-09-27T07:25:25;15.40;99.90
40638;DHT22;26336;44.696;10.622;2022-09-27T07:28:29;15.50;99.90
40638;DHT22;26336;44.696;10.622;2022-09-27T07:31:33;15.60;99.90
40638;DHT22;26336;44.696;10.622;2022-09-27T07:34:36;15.70;99.90
40638;DHT22;26336;44.696;10.622;2022-09-27T07:37:41;15.80;99.90
40638;DHT22;26336;44.696;10.622;2022-09-27T07:40:46;15.80;99.90
40638;DHT22;26336;44.696;10.622;2022-09-27T07:43:50;15.90;99.90
40638;DHT22;26336;44.696;10.622;2022-09-27T07:46:56;16.00;99.90
40638;DHT22;26336;44.696;10.622;2022-09-27T07:50:07;16.10;99.90
40638;DHT22;26336;44.696;10.622;2022-09-27T07:53:19;16.20;99.90
40638;DHT22;26336;44.696;10.622;2022-09-27T07:56:53;16.30;99.90
40638;DHT22;26336;44.696;10.622;2022-09-27T07:59:58;16.40;99.90
40638;DHT22;26336;44.696;10.622;2022-09-27T08:03:07;16.40;99.90
40638;DHT22;26336;44.696;10.622;2022-09-27T08:06:13;16.50;99.90
40638;DHT22;26336;44.696;10.622;2022-09-27T08:09:16;16.70;99.90
40638;DHT22;26336;44.696;10.622;2022-09-27T08:12:21;16.70;99.90
40638;DHT22;26336;44.696;10.622;2022-09-27T08:15:26;16.90;99.90
40638;DHT22;26336;44.696;10.622;2022-09-27T08:18:31;17.00;99.90
40638;DHT22;26336;44.696;10.622;2022-09-27T08:21:38;17.10;99.90
40638;DHT22;26336;44.696;10.622;2022-09-27T08:25:08;17.20;99.90
40638;DHT22;26336;44.696;10.622;2022-09-27T08:28:38;17.30;99.90
40638;DHT22;26336;44.696;10.622;2022-09-27T08:31:54;17.40;99.90
40638;DHT22;26336;44.696;10.622;2022-09-27T08:34:59;17.60;99.90
40638;DHT22;26336;44.696;10.622;2022-09-27T08:38:03;17.60;99.90
40638;DHT22;26336;44.696;10.622;2022-09-27T08:48:01;18.00;99.90
40638;DHT22;26336;44.696;10.622;2022-09-27T08:51:11;18.10;99.90
40638;DHT22;26336;44.696;10.622;2022-09-27T08:54:22;18.20;99.90
40638;DHT22;26336;44.696;10.622;2022-09-27T08:57:27;18.30;99.90
40638;DHT22;26336;44.696;10.622;2022-09-27T09:00:31;18.40;99.80
40638;DHT22;26336;44.696;10.622;2022-09-27T09:03:51;18.40;99.50
40638;DHT22;26336;44.696;10.622;2022-09-27T09:25:01;19.00;97.60
40638;DHT22;26336;44.696;10.622;2022-09-27T09:31:40;19.10;97.80
40638;DHT22;26336;44.696;10.622;2022-09-27T09:34:56;19.10;97.10
40638;DHT22;26336;44.696;10.622;2022-09-27T09:38:05;19.10;97.20
40638;DHT22;26336;44.696;10.622;2022-09-27T09:41:25;19.10;96.90
40638;DHT22;26336;44.696;10.622;2022-09-27T09:51:04;19.20;97.00
40638;DHT22;26336;44.696;10.622;2022-09-27T09:54:49;19.20;97.20
40638;DHT22;26336;44.696;10.622;2022-09-27T10:01:46;19.30;97.10
40638;DHT22;26336;44.696;10.622;2022-09-27T10:04:51;19.30;97.00
40638;DHT22;26336;44.696;10.622;2022-09-27T10:07:58;19.30;97.20
40638;DHT22;26336;44.696;10.622;2022-09-27T10:11:03;19.30;97.20
40638;DHT22;26336;44.696;10.622;2022-09-27T10:14:11;19.30;97.00
40638;DHT22;26336;44.696;10.622;2022-09-27T10:17:25;19.30;97.20
40638;DHT22;26336;44.696;10.622;2022-09-27T10:20:37;19.40;97.70
40638;DHT22;26336;44.696;10.622;2022-09-27T10:27:41;19.40;97.60
40638;DHT22;26336;44.696;10.622;2022-09-27T10:30:54;19.40;97.30
40638;DHT22;26336;44.696;10.622;2022-09-27T10:34:03;19.40;97.70
40638;DHT22;26336;44.696;10.622;2022-09-27T10:37:21;19.40;97.80
40638;DHT22;26336;44.696;10.622;2022-09-27T10:40:43;19.40;97.70
40638;DHT22;26336;44.696;10.622;2022-09-27T10:43:48;19.50;97.90
40638;DHT22;26336;44.696;10.622;2022-09-27T10:47:13;19.60;97.90
40638;DHT22;26336;44.696;10.622;2022-09-27T10:50:30;19.70;97.70
40638;DHT22;26336;44.696;10.622;2022-09-27T10:53:44;19.70;97.60
40638;DHT22;26336;44.696;10.622;2022-09-27T11:00:25;19.90;97.70
40638;DHT22;26336;44.696;10.622;2022-09-27T11:03:32;19.90;97.30
40638;DHT22;26336;44.696;10.622;2022-09-27T11:06:39;20.00;97.10
40638;DHT22;26336;44.696;10.622;2022-09-27T11:09:53;20.00;97.00
40638;DHT22;26336;44.696;10.622;2022-09-27T11:13:15;20.00;97.20
40638;DHT22;26336;44.696;10.622;2022-09-27T11:23:16;20.10;97.50
40638;DHT22;26336;44.696;10.622;2022-09-27T11:26:57;20.10;97.70
40638;DHT22;26336;44.696;10.622;2022-09-27T11:40:46;20.40;97.50
40638;DHT22;26336;44.696;10.622;2022-09-27T11:57:28;20.60;97.20
40638;DHT22;26336;44.696;10.622;2022-09-27T12:07:20;20.60;96.90
40638;DHT22;26336;44.696;10.622;2022-09-27T12:10:26;20.60;97.40
40638;DHT22;26336;44.696;10.622;2022-09-27T12:13:41;20.60;97.20
40638;DHT22;26336;44.696;10.622;2022-09-27T12:16:49;20.50;97.20
40638;DHT22;26336;44.696;10.622;2022-09-27T12:19:57;20.50;97.20
40638;DHT22;26336;44.696;10.622;2022-09-27T12:23:42;20.50;97.40
40638;DHT22;26336;44.696;10.622;2022-09-27T12:27:15;20.50;97.40
40638;DHT22;26336;44.696;10.622;2022-09-27T12:30:20;20.60;97.10
40638;DHT22;26336;44.696;10.622;2022-09-27T12:40:34;20.70;96.80
40638;DHT22;26336;44.696;10.622;2022-09-27T12:43:44;20.60;97.20
40638;DHT22;26336;44.696;10.622;2022-09-27T12:46:58;20.60;97.30
40638;DHT22;26336;44.696;10.622;2022-09-27T13:00:11;20.50;97.60
40638;DHT22;26336;44.696;10.622;2022-09-27T13:03:48;20.50;97.50
40638;DHT22;26336;44.696;10.622;2022-09-27T13:14:04;20.40;97.00
40638;DHT22;26336;44.696;10.622;2022-09-27T13:17:31;20.50;97.40
40638;DHT22;26336;44.696;10.622;2022-09-27T13:20:41;20.50;95.40
40638;DHT22;26336;44.696;10.622;2022-09-27T13:27:43;20.50;96.10
40638;DHT22;26336;44.696;10.622;2022-09-27T13:30:58;20.40;96.50
40638;DHT22;26336;44.696;10.622;2022-09-27T13:34:03;20.50;96.70
40638;DHT22;26336;44.696;10.622;2022-09-27T13:40:35;20.50;95.90
40638;DHT22;26336;44.696;10.622;2022-09-27T13:44:01;20.50;96.10
40638;DHT22;26336;44.696;10.622;2022-09-27T13:47:32;20.60;95.90
40638;DHT22;26336;44.696;10.622;2022-09-27T13:54:05;20.60;96.00
40638;DHT22;26336;44.696;10.622;2022-09-27T14:00:43;20.70;96.70
40638;DHT22;26336;44.696;10.622;2022-09-27T14:03:55;20.80;96.50
40638;DHT22;26336;44.696;10.622;2022-09-27T14:07:03;20.80;96.10
40638;DHT22;26336;44.696;10.622;2022-09-27T14:10:16;20.90;95.00
40638;DHT22;26336;44.696;10.622;2022-09-27T14:13:24;20.90;94.70
40638;DHT22;26336;44.696;10.622;2022-09-27T14:16:43;20.90;95.20
40638;DHT22;26336;44.696;10.622;2022-09-27T14:19:52;21.00;94.40
40638;DHT22;26336;44.696;10.622;2022-09-27T14:23:00;21.10;95.70
40638;DHT22;26336;44.696;10.622;2022-09-27T14:26:26;21.10;95.80
40638;DHT22;26336;44.696;10.622;2022-09-27T14:29:36;21.20;95.70
40638;DHT22;26336;44.696;10.622;2022-09-27T14:32:50;21.10;95.30
40638;DHT22;26336;44.696;10.622;2022-09-27T14:36:01;21.10;94.60
40638;DHT22;26336;44.696;10.622;2022-09-27T14:39:31;21.10;95.00
40638;DHT22;26336;44.696;10.622;2022-09-27T14:42:38;21.10;94.70
40638;DHT22;26336;44.696;10.622;2022-09-27T14:46:03;21.10;94.80
40638;DHT22;26336;44.696;10.622;2022-09-27T14:49:18;21.00;94.90
40638;DHT22;26336;44.696;10.622;2022-09-27T14:52:26;21.00;95.10
40638;DHT22;26336;44.696;10.622;2022-09-27T14:55:35;21.00;95.40
40638;DHT22;26336;44.696;10.622;2022-09-27T14:58:41;20.90;95.30
40638;DHT22;26336;44.696;10.622;2022-09-27T15:01:49;21.00;95.10
40638;DHT22;26336;44.696;10.622;2022-09-27T15:04:54;21.00;94.30
40638;DHT22;26336;44.696;10.622;2022-09-27T15:08:03;21.00;94.40
40638;DHT22;26336;44.696;10.622;2022-09-27T15:11:09;21.00;94.50
40638;DHT22;26336;44.696;10.622;2022-09-27T15:14:16;21.00;94.70
40638;DHT22;26336;44.696;10.622;2022-09-27T15:17:23;21.00;94.70
40638;DHT22;26336;44.696;10.622;2022-09-27T15:20:33;21.10;94.90
40638;DHT22;26336;44.696;10.622;2022-09-27T15:23:40;21.10;94.70
40638;DHT22;26336;44.696;10.622;2022-09-27T15:26:45;21.10;94.50
40638;DHT22;26336;44.696;10.622;2022-09-27T15:29:55;21.00;94.70
40638;DHT22;26336;44.696;10.622;2022-09-27T15:32:59;21.00;94.90
40638;DHT22;26336;44.696;10.622;2022-09-27T15:36:06;21.10;94.90
40638;DHT22;26336;44.696;10.622;2022-09-27T15:42:58;21.10;94.10
40638;DHT22;26336;44.696;10.622;2022-09-27T15:49:28;21.10;93.20
40638;DHT22;26336;44.696;10.622;2022-09-27T15:52:45;21.00;93.60
40638;DHT22;26336;44.696;10.622;2022-09-27T15:55:53;21.00;94.10
40638;DHT22;26336;44.696;10.622;2022-09-27T15:58:58;21.00;94.50
40638;DHT22;26336;44.696;10.622;2022-09-27T16:02:16;21.00;95.30
40638;DHT22;26336;44.696;10.622;2022-09-27T16:05:22;21.00;95.60
40638;DHT22;26336;44.696;10.622;2022-09-27T16:08:27;21.00;95.90
40638;DHT22;26336;44.696;10.622;2022-09-27T16:11:32;20.90;95.80
40638;DHT22;26336;44.696;10.622;2022-09-27T16:14:36;20.90;96.00
40638;DHT22;26336;44.696;10.622;2022-09-27T16:17:40;20.90;95.80
40638;DHT22;26336;44.696;10.622;2022-09-27T16:20:45;20.80;95.90
40638;DHT22;26336;44.696;10.622;2022-09-27T16:23:49;20.80;96.10
40638;DHT22;26336;44.696;10.622;2022-09-27T16:26:53;20.80;96.40
40638;DHT22;26336;44.696;10.622;2022-09-27T16:29:58;20.70;96.40
40638;DHT22;26336;44.696;10.622;2022-09-27T16:33:03;20.70;96.30
40638;DHT22;26336;44.696;10.622;2022-09-27T16:36:07;20.70;96.30
40638;DHT22;26336;44.696;10.622;2022-09-27T16:39:16;20.60;96.50
40638;DHT22;26336;44.696;10.622;2022-09-27T16:42:25;20.60;96.90
40638;DHT22;26336;44.696;10.622;2022-09-27T16:45:38;20.60;96.90
40638;DHT22;26336;44.696;10.622;2022-09-27T16:48:46;20.50;96.70
40638;DHT22;26336;44.696;10.622;2022-09-27T16:52:00;20.50;97.00
40638;DHT22;26336;44.696;10.622;2022-09-27T16:55:15;20.40;96.40
40638;DHT22;26336;44.696;10.622;2022-09-27T16:58:30;20.40;96.50
40638;DHT22;26336;44.696;10.622;2022-09-27T17:01:33;20.40;96.50
40638;DHT22;26336;44.696;10.622;2022-09-27T17:04:38;20.30;96.40
40638;DHT22;26336;44.696;10.622;2022-09-27T17:07:42;20.30;96.20
40638;DHT22;26336;44.696;10.622;2022-09-27T17:10:54;20.20;96.10
40638;DHT22;26336;44.696;10.622;2022-09-27T17:14:00;20.20;95.90
40638;DHT22;26336;44.696;10.622;2022-09-27T17:17:03;20.20;95.90
40638;DHT22;26336;44.696;10.622;2022-09-27T17:20:08;20.20;95.90
40638;DHT22;26336;44.696;10.622;2022-09-27T17:23:12;20.20;95.80
40638;DHT22;26336;44.696;10.622;2022-09-27T17:26:19;20.20;95.80
40638;DHT22;26336;44.696;10.622;2022-09-27T17:29:23;20.10;95.80
40638;DHT22;26336;44.696;10.622;2022-09-27T17:32:27;20.10;95.60
40638;DHT22;26336;44.696;10.622;2022-09-27T17:35:31;20.10;95.50
40638;DHT22;26336;44.696;10.622;2022-09-27T17:38:38;20.10;95.60
40638;DHT22;26336;44.696;10.622;2022-09-27T17:41:43;20.10;95.70
40638;DHT22;26336;44.696;10.622;2022-09-27T17:44:47;20.00;95.60
40638;DHT22;26336;44.696;10.622;2022-09-27T17:48:10;20.00;95.50
40638;DHT22;26336;44.696;10.622;2022-09-27T17:51:35;20.00;95.60
40638;DHT22;26336;44.696;10.622;2022-09-27T17:54:39;20.00;95.70
40638;DHT22;26336;44.696;10.622;2022-09-27T17:57:46;19.90;95.80
40638;DHT22;26336;44.696;10.622;2022-09-27T18:00:50;19.90;95.80
40638;DHT22;26336;44.696;10.622;2022-09-27T18:03:56;19.90;95.80
40638;DHT22;26336;44.696;10.622;2022-09-27T18:07:01;19.80;95.70
40638;DHT22;26336;44.696;10.622;2022-09-27T18:10:06;19.80;95.70
40638;DHT22;26336;44.696;10.622;2022-09-27T18:13:10;19.80;95.80
40638;DHT22;26336;44.696;10.622;2022-09-27T18:16:17;19.70;96.20
40638;DHT22;26336;44.696;10.622;2022-09-27T18:19:21;19.70;96.10
40638;DHT22;26336;44.696;10.622;2022-09-27T18:22:25;19.70;96.10
40638;DHT22;26336;44.696;10.622;2022-09-27T18:25:32;19.60;96.20
40638;DHT22;26336;44.696;10.622;2022-09-27T18:28:43;19.60;96.30
40638;DHT22;26336;44.696;10.622;2022-09-27T18:31:47;19.60;96.10
40638;DHT22;26336;44.696;10.622;2022-09-27T18:34:51;19.60;96.10
40638;DHT22;26336;44.696;10.622;2022-09-27T18:37:56;19.50;96.10
40638;DHT22;26336;44.696;10.622;2022-09-27T18:41:13;19.40;96.10
40638;DHT22;26336;44.696;10.622;2022-09-27T18:44:17;19.40;95.90
40638;DHT22;26336;44.696;10.622;2022-09-27T18:47:21;19.30;96.00
40638;DHT22;26336;44.696;10.622;2022-09-27T18:50:26;19.30;96.20
40638;DHT22;26336;44.696;10.622;2022-09-27T18:53:30;19.30;96.10
40638;DHT22;26336;44.696;10.622;2022-09-27T18:56:37;19.20;95.80
40638;DHT22;26336;44.696;10.622;2022-09-27T18:59:41;19.10;96.50
40638;DHT22;26336;44.696;10.622;2022-09-27T19:02:48;19.00;96.80
40638;DHT22;26336;44.696;10.622;2022-09-27T19:05:54;19.00;96.80
40638;DHT22;26336;44.696;10.622;2022-09-27T19:08:58;19.00;97.00
40638;DHT22;26336;44.696;10.622;2022-09-27T19:12:02;19.00;97.00
40638;DHT22;26336;44.696;10.622;2022-09-27T19:15:10;18.90;97.00
40638;DHT22;26336;44.696;10.622;2022-09-27T19:18:13;18.80;97.00
40638;DHT22;26336;44.696;10.622;2022-09-27T19:21:25;18.80;96.90
40638;DHT22;26336;44.696;10.622;2022-09-27T19:24:30;18.80;96.80
40638;DHT22;26336;44.696;10.622;2022-09-27T19:27:34;18.80;96.50
40638;DHT22;26336;44.696;10.622;2022-09-27T19:30:44;18.80;96.40
40638;DHT22;26336;44.696;10.622;2022-09-27T19:33:49;18.90;96.50
40638;DHT22;26336;44.696;10.622;2022-09-27T19:36:53;18.80;96.30
40638;DHT22;26336;44.696;10.622;2022-09-27T19:39:57;18.90;96.20
40638;DHT22;26336;44.696;10.622;2022-09-27T19:43:02;18.80;96.20
40638;DHT22;26336;44.696;10.622;2022-09-27T19:46:09;18.90;96.10
40638;DHT22;26336;44.696;10.622;2022-09-27T19:49:13;18.80;96.00
40638;DHT22;26336;44.696;10.622;2022-09-27T19:52:17;18.80;96.00
40638;DHT22;26336;44.696;10.622;2022-09-27T19:55:21;18.80;96.00
40638;DHT22;26336;44.696;10.622;2022-09-27T19:58:26;18.80;95.90
40638;DHT22;26336;44.696;10.622;2022-09-27T20:01:31;18.80;95.80
40638;DHT22;26336;44.696;10.622;2022-09-27T20:04:34;18.80;95.80
40638;DHT22;26336;44.696;10.622;2022-09-27T20:07:38;18.70;95.70
40638;DHT22;26336;44.696;10.622;2022-09-27T20:10:42;18.70;95.80
40638;DHT22;26336;44.696;10.622;2022-09-27T20:13:47;18.70;95.90
40638;DHT22;26336;44.696;10.622;2022-09-27T20:16:52;18.70;95.70
40638;DHT22;26336;44.696;10.622;2022-09-27T20:19:56;18.60;95.60
40638;DHT22;26336;44.696;10.622;2022-09-27T20:23:00;18.70;95.70
40638;DHT22;26336;44.696;10.622;2022-09-27T20:26:13;18.60;95.60
40638;DHT22;26336;44.696;10.622;2022-09-27T20:29:17;18.60;95.80
40638;DHT22;26336;44.696;10.622;2022-09-27T20:32:21;18.60;95.80
40638;DHT22;26336;44.696;10.622;2022-09-27T20:35:25;18.50;95.70
40638;DHT22;26336;44.696;10.622;2022-09-27T20:38:29;18.60;95.80
40638;DHT22;26336;44.696;10.622;2022-09-27T20:41:44;18.60;95.60
40638;DHT22;26336;44.696;10.622;2022-09-27T20:44:49;18.50;95.80
40638;DHT22;26336;44.696;10.622;2022-09-27T20:47:53;18.50;95.80
40638;DHT22;26336;44.696;10.622;2022-09-27T20:50:58;18.50;96.10
40638;DHT22;26336;44.696;10.622;2022-09-27T20:54:03;18.40;95.90
40638;DHT22;26336;44.696;10.622;2022-09-27T20:57:07;18.50;95.90
40638;DHT22;26336;44.696;10.622;2022-09-27T21:00:12;18.40;95.90
40638;DHT22;26336;44.696;10.622;2022-09-27T21:03:16;18.40;95.70
40638;DHT22;26336;44.696;10.622;2022-09-27T21:06:21;18.40;95.60
40638;DHT22;26336;44.696;10.622;2022-09-27T21:09:29;18.30;95.30
40638;DHT22;26336;44.696;10.622;2022-09-27T21:12:33;18.30;95.40
40638;DHT22;26336;44.696;10.622;2022-09-27T21:15:37;18.30;95.80
40638;DHT22;26336;44.696;10.622;2022-09-27T21:18:42;18.30;96.20
40638;DHT22;26336;44.696;10.622;2022-09-27T21:21:46;18.20;96.70
40638;DHT22;26336;44.696;10.622;2022-09-27T21:24:50;17.90;96.60
40638;DHT22;26336;44.696;10.622;2022-09-27T21:27:55;17.80;97.10
40638;DHT22;26336;44.696;10.622;2022-09-27T21:31:05;17.80;97.10
40638;DHT22;26336;44.696;10.622;2022-09-27T21:34:09;17.70;96.80
40638;DHT22;26336;44.696;10.622;2022-09-27T21:37:13;17.70;97.10
40638;DHT22;26336;44.696;10.622;2022-09-27T21:40:17;17.70;97.20
40638;DHT22;26336;44.696;10.622;2022-09-27T21:43:29;17.60;97.10
40638;DHT22;26336;44.696;10.622;2022-09-27T21:46:33;17.50;97.10
40638;DHT22;26336;44.696;10.622;2022-09-27T21:49:37;17.40;97.30
40638;DHT22;26336;44.696;10.622;2022-09-27T21:52:41;17.40;97.40
40638;DHT22;26336;44.696;10.622;2022-09-27T21:55:55;17.40;97.50
40638;DHT22;26336;44.696;10.622;2022-09-27T21:58:59;17.50;97.30
40638;DHT22;26336;44.696;10.622;2022-09-27T22:02:03;17.50;97.10
40638;DHT22;26336;44.696;10.622;2022-09-27T22:05:08;17.50;97.20
40638;DHT22;26336;44.696;10.622;2022-09-27T22:08:12;17.60;97.40
40638;DHT22;26336;44.696;10.622;2022-09-27T22:11:22;17.60;97.50
40638;DHT22;26336;44.696;10.622;2022-09-27T22:14:26;17.50;97.50
40638;DHT22;26336;44.696;10.622;2022-09-27T22:17:30;17.50;97.60
40638;DHT22;26336;44.696;10.622;2022-09-27T22:20:34;17.50;97.60
40638;DHT22;26336;44.696;10.622;2022-09-27T22:23:38;17.30;97.20
40638;DHT22;26336;44.696;10.622;2022-09-27T22:26:48;17.10;97.70
40638;DHT22;26336;44.696;10.622;2022-09-27T22:29:54;17.10;97.80
40638;DHT22;26336;44.696;10.622;2022-09-27T22:32:57;17.20;97.90